Time;durP1;ratioP1;P1;durP2;ratioP2;P2;SDS_P1;SDS_P2;PMS_P1;PMS_P2;Temp;Humidity;BMP_temperature;BMP_pressure;BME280_temperature;BME280_humidity;BME280_pressure;Samples;Min_cycle;Max_cycle;Signal;HPM_P1;HPM_P2
2023/01/16 00:01:19;;;;;;;2.80;1.35;;;;;;;;;;6342149;22;20142;-65
2023/01/16 00:03:46;;;;;;;2.28;1.33;;;;;;;;;;6341728;22;20143;-65
2023/01/16 00:06:12;;;;;;;2.13;1.23;;;;;;;;;;6341568;22;20483;-65
2023/01/16 00:08:38;;;;;;;6.55;2.22;;;;;;;;;;6341728;22;20150;-65
2023/01/16 00:11:04;;;;;;;4.25;1.30;;;;;;;;;;6341646;22;20146;-65
2023/01/16 00:13:29;;;;;;;1.80;1.15;;;;;;;;;;6342108;22;20161;-64
2023/01/16 00:15:55;;;;;;;3.75;1.17;;;;;;;;;;6341761;22;20166;-64
2023/01/16 00:18:21;;;;;;;4.25;2.15;;;;;;;;;;6341713;22;20233;-65
2023/01/16 00:20:48;;;;;;;2.65;1.13;;;;;;;;;;6341553;22;20158;-65
2023/01/16 00:23:14;;;;;;;5.68;1.40;;;;;;;;;;6341928;22;20133;-63
2023/01/16 00:25:41;;;;;;;2.35;1.40;;;;;;;;;;6341613;22;20170;-64
2023/01/16 00:28:07;;;;;;;1.88;1.23;;;;;;;;;;6341822;22;20146;-64
2023/01/16 00:30:33;;;;;;;2.00;1.30;;;;;;;;;;6341879;22;20230;-64
2023/01/16 00:32:59;;;;;;;3.95;1.20;;;;;;;;;;6341805;22;20138;-64
2023/01/16 00:35:26;;;;;;;2.83;1.38;;;;;;;;;;6341796;22;20170;-64
2023/01/16 00:37:52;;;;;;;2.53;1.27;;;;;;;;;;6341765;22;20205;-64
2023/01/16 00:40:19;;;;;;;3.78;1.42;;;;;;;;;;6341387;22;20145;-64
2023/01/16 00:42:44;;;;;;;4.50;1.58;;;;;;;;;;6341414;22;20174;-64
2023/01/16 00:45:11;;;;;;;1.77;1.17;;;;;;;;;;6341559;22;20521;-64
2023/01/16 00:47:37;;;;;;;1.90;1.25;;;;;;;;;;6341554;22;20145;-65
2023/01/16 00:50:03;;;;;;;4.90;1.67;;;;;;;;;;6341528;22;20640;-64
2023/01/16 00:52:29;;;;;;;2.00;1.30;;;;;;;;;;6341628;22;20150;-65
2023/01/16 00:54:55;;;;;;;3.00;1.10;;;;;;;;;;6340970;22;20439;-65
2023/01/16 00:57:21;;;;;;;2.40;1.23;;;;;;;;;;6341226;22;20150;-64
2023/01/16 00:59:47;;;;;;;3.78;1.38;;;;;;;;;;6341419;22;20141;-65
2023/01/16 01:02:13;;;;;;;2.10;1.15;;;;;;;;;;6341628;22;20510;-65
2023/01/16 01:04:39;;;;;;;3.92;1.30;;;;;;;;;;6341716;22;20142;-64
2023/01/16 01:07:05;;;;;;;3.83;1.40;;;;;;;;;;6341379;22;20145;-64
2023/01/16 01:09:31;;;;;;;3.10;1.42;;;;;;;;;;6341673;22;20142;-65
2023/01/16 01:11:58;;;;;;;1.88;1.25;;;;;;;;;;6341044;22;20195;-64
2023/01/16 01:14:24;;;;;;;3.42;1.30;;;;;;;;;;6341462;22;20150;-65
2023/01/16 01:16:50;;;;;;;4.68;1.50;;;;;;;;;;6341240;22;20170;-65
2023/01/16 01:19:16;;;;;;;2.50;1.33;;;;;;;;;;6340938;22;20250;-65
2023/01/16 01:21:42;;;;;;;2.17;1.50;;;;;;;;;;6340642;22;20248;-65
2023/01/16 01:24:08;;;;;;;4.05;1.77;;;;;;;;;;6341011;22;20160;-65
2023/01/16 01:26:33;;;;;;;2.85;1.60;;;;;;;;;;6365990;22;20150;-63
2023/01/16 01:28:59;;;;;;;4.00;1.48;;;;;;;;;;6341138;22;20142;-64
2023/01/16 01:31:25;;;;;;;3.35;1.30;;;;;;;;;;6341008;22;20139;-64
2023/01/16 01:33:51;;;;;;;3.90;1.60;;;;;;;;;;6341262;22;20152;-64
2023/01/16 01:36:17;;;;;;;1.67;1.33;;;;;;;;;;6340930;22;20166;-64
2023/01/16 01:38:46;;;;;;;2.22;1.50;;;;;;;;;;6341270;22;20169;-64
2023/01/16 01:41:13;;;;;;;3.50;1.35;;;;;;;;;;6340835;22;20545;-63
2023/01/16 01:43:47;;;;;;;3.67;1.58;;;;;;;;;;6342182;22;20591;-64
2023/01/16 01:46:20;;;;;;;4.03;1.75;;;;;;;;;;6342793;22;20579;-65
2023/01/16 01:48:47;;;;;;;2.45;1.50;;;;;;;;;;6343748;22;20138;-65
2023/01/16 01:51:18;;;;;;;4.93;1.40;;;;;;;;;;6343311;22;20165;-64
2023/01/16 01:53:46;;;;;;;2.10;1.40;;;;;;;;;;6343148;22;20137;-64
2023/01/16 01:56:18;;;;;;;2.17;1.20;;;;;;;;;;6342721;22;20177;-65
2023/01/16 01:58:45;;;;;;;3.88;1.55;;;;;;;;;;6342846;22;20407;-65
2023/01/16 02:01:11;;;;;;;3.78;1.70;;;;;;;;;;6342769;22;20205;-64
2023/01/16 02:03:40;;;;;;;2.00;1.42;;;;;;;;;;6342776;22;20173;-64
2023/01/16 02:06:09;;;;;;;2.60;1.48;;;;;;;;;;6342856;22;20202;-63
2023/01/16 02:08:36;;;;;;;3.42;1.52;;;;;;;;;;6343130;22;20138;-64
2023/01/16 02:11:29;;;;;;;3.30;1.63;;;;;;;;;;6342987;22;20142;-64
2023/01/16 02:14:00;;;;;;;2.05;1.65;;;;;;;;;;6296711;22;20146;-64
2023/01/16 02:19:21;;;;;;;2.38;1.50;;;;;;;;;;6342566;22;20141;-64
2023/01/16 02:21:53;;;;;;;1.73;1.42;;;;;;;;;;6342461;22;20160;-65
2023/01/16 02:24:43;;;;;;;3.72;1.50;;;;;;;;;;6343010;22;20434;-65
2023/01/16 02:27:32;;;;;;;3.75;1.60;;;;;;;;;;6217181;23;20187;-64
2023/01/16 02:30:00;;;;;;;2.13;1.40;;;;;;;;;;6217908;23;20137;-65
2023/01/16 02:32:38;;;;;;;3.67;1.58;;;;;;;;;;6217361;23;20144;-65
2023/01/16 02:35:07;;;;;;;2.08;1.30;;;;;;;;;;6217559;23;20198;-64
2023/01/16 02:37:54;;;;;;;4.40;1.60;;;;;;;;;;6217301;23;20540;-64
2023/01/16 02:40:58;;;;;;;2.08;1.23;;;;;;;;;;6218381;23;20136;-64
2023/01/16 02:43:40;;;;;;;1.30;1.20;;;;;;;;;;6128283;23;20146;-64
2023/01/16 02:46:15;;;;;;;1.55;1.10;;;;;;;;;;6128094;23;20148;-64
2023/01/16 02:48:44;;;;;;;2.33;1.20;;;;;;;;;;6128461;23;20242;-65
2023/01/16 02:51:23;;;;;;;3.25;1.15;;;;;;;;;;6128063;23;20327;-64
2023/01/16 02:54:10;;;;;;;2.30;1.10;;;;;;;;;;6128449;23;20139;-64
2023/01/16 02:56:45;;;;;;;3.20;1.40;;;;;;;;;;6127908;23;20339;-62
2023/01/16 02:59:12;;;;;;;2.80;1.48;;;;;;;;;;6128032;23;20147;-64
2023/01/16 03:01:40;;;;;;;2.47;1.50;;;;;;;;;;6128231;23;20446;-63
2023/01/16 03:04:26;;;;;;;2.50;1.58;;;;;;;;;;6203378;22;20234;-64
2023/01/16 03:06:59;;;;;;;2.50;1.50;;;;;;;;;;6278234;22;20163;-64
2023/01/16 03:09:43;;;;;;;3.75;1.90;;;;;;;;;;6278551;22;20132;-64
2023/01/16 03:12:19;;;;;;;3.35;1.88;;;;;;;;;;6278270;22;20148;-66
2023/01/16 03:14:45;;;;;;;3.25;1.50;;;;;;;;;;6278452;22;20131;-66
2023/01/16 03:17:11;;;;;;;2.95;1.88;;;;;;;;;;6307321;22;20174;-65
2023/01/16 03:19:37;;;;;;;3.72;1.40;;;;;;;;;;6342078;22;20529;-63
2023/01/16 03:22:03;;;;;;;4.72;1.90;;;;;;;;;;6341767;22;20168;-65
2023/01/16 03:24:29;;;;;;;3.58;1.80;;;;;;;;;;6342168;22;20214;-65
2023/01/16 03:26:58;;;;;;;2.60;2.00;;;;;;;;;;6342168;22;20142;-65
2023/01/16 03:29:30;;;;;;;4.28;1.70;;;;;;;;;;6341919;22;20146;-65
2023/01/16 03:31:58;;;;;;;3.53;1.65;;;;;;;;;;6342707;22;20196;-65
2023/01/16 03:34:30;;;;;;;4.53;2.35;;;;;;;;;;6342171;22;20205;-65
2023/01/16 03:37:05;;;;;;;5.65;2.60;;;;;;;;;;6341961;22;20252;-63
2023/01/16 03:39:52;;;;;;;5.53;2.30;;;;;;;;;;6342258;22;20138;-65
2023/01/16 03:42:21;;;;;;;3.65;2.50;;;;;;;;;;6341538;22;20173;-65
2023/01/16 03:44:50;;;;;;;6.03;2.95;;;;;;;;;;6342096;22;20161;-65
2023/01/16 03:47:20;;;;;;;2.85;2.40;;;;;;;;;;6341711;22;20608;-65
2023/01/16 03:49:48;;;;;;;4.47;2.58;;;;;;;;;;6341804;22;20538;-65
2023/01/16 03:52:16;;;;;;;4.15;2.63;;;;;;;;;;6341968;22;20160;-65
2023/01/16 03:54:45;;;;;;;4.25;2.92;;;;;;;;;;6341685;22;20142;-65
2023/01/16 03:57:14;;;;;;;5.90;2.63;;;;;;;;;;6341848;22;20180;-65
2023/01/16 03:59:41;;;;;;;6.28;2.83;;;;;;;;;;6342027;22;20146;-65
2023/01/16 04:02:12;;;;;;;5.00;3.00;;;;;;;;;;6341936;22;20153;-64
2023/01/16 04:04:38;;;;;;;7.32;2.67;;;;;;;;;;6342237;22;20545;-63
2023/01/16 04:07:10;;;;;;;5.35;2.60;;;;;;;;;;6341906;22;20143;-65
2023/01/16 04:09:43;;;;;;;3.13;2.65;;;;;;;;;;6341913;22;20146;-66
2023/01/16 04:12:09;;;;;;;6.07;2.50;;;;;;;;;;6341966;22;20207;-66
2023/01/16 04:14:36;;;;;;;2.45;2.25;;;;;;;;;;6342113;22;20199;-64
2023/01/16 04:17:03;;;;;;;5.63;2.63;;;;;;;;;;6341671;22;20565;-64
2023/01/16 04:19:31;;;;;;;4.03;2.28;;;;;;;;;;6342047;22;20224;-64
2023/01/16 04:21:57;;;;;;;5.43;2.58;;;;;;;;;;6341855;22;20552;-63
2023/01/16 04:24:23;;;;;;;3.90;2.13;;;;;;;;;;6341446;22;20657;-63
2023/01/16 04:26:51;;;;;;;5.15;2.42;;;;;;;;;;6341690;22;20142;-63
2023/01/16 04:29:17;;;;;;;3.58;2.22;;;;;;;;;;6342073;22;20180;-65
2023/01/16 04:31:43;;;;;;;4.50;2.20;;;;;;;;;;6342233;22;20156;-65
2023/01/16 04:34:09;;;;;;;4.47;2.30;;;;;;;;;;6341309;22;20142;-64
2023/01/16 04:36:35;;;;;;;4.53;2.10;;;;;;;;;;6341234;22;20584;-65
2023/01/16 04:39:01;;;;;;;3.55;2.25;;;;;;;;;;6341314;22;20264;-65
2023/01/16 04:41:36;;;;;;;4.10;1.70;;;;;;;;;;6341408;22;20142;-64
2023/01/16 04:44:06;;;;;;;4.40;1.73;;;;;;;;;;6341261;22;20118;-64
2023/01/16 04:46:32;;;;;;;3.20;1.60;;;;;;;;;;6341609;22;20595;-65
2023/01/16 04:48:58;;;;;;;2.88;1.63;;;;;;;;;;6341540;22;20410;-65
2023/01/16 04:51:24;;;;;;;2.75;1.73;;;;;;;;;;6341618;22;20237;-65
2023/01/16 04:53:51;;;;;;;2.95;1.73;;;;;;;;;;6341111;22;20564;-65
2023/01/16 04:56:17;;;;;;;3.15;1.80;;;;;;;;;;6341507;22;20221;-65
2023/01/16 04:58:42;;;;;;;6.78;2.00;;;;;;;;;;6341354;22;20564;-65
2023/01/16 05:01:08;;;;;;;2.38;1.55;;;;;;;;;;6341128;22;20221;-65
2023/01/16 05:03:34;;;;;;;3.42;1.90;;;;;;;;;;6341067;22;20139;-64
2023/01/16 05:06:00;;;;;;;6.32;2.05;;;;;;;;;;6341159;22;20143;-64
2023/01/16 05:08:28;;;;;;;4.22;1.85;;;;;;;;;;6341177;22;20147;-65
2023/01/16 05:10:54;;;;;;;4.10;2.10;;;;;;;;;;6341409;22;20436;-65
2023/01/16 05:13:21;;;;;;;3.85;1.83;;;;;;;;;;6341008;22;20142;-65
2023/01/16 05:15:47;;;;;;;3.15;1.85;;;;;;;;;;6341365;22;20166;-65
2023/01/16 05:18:13;;;;;;;3.35;1.98;;;;;;;;;;6340409;22;20207;-64
2023/01/16 05:20:39;;;;;;;5.63;1.92;;;;;;;;;;6341102;22;20173;-65
2023/01/16 05:23:05;;;;;;;3.88;1.90;;;;;;;;;;6341212;22;20134;-65
2023/01/16 05:25:31;;;;;;;3.47;1.88;;;;;;;;;;6341430;22;20204;-65
2023/01/16 05:27:57;;;;;;;4.88;2.10;;;;;;;;;;6340845;22;20138;-65
2023/01/16 05:30:23;;;;;;;3.97;1.73;;;;;;;;;;6341300;22;20192;-64
2023/01/16 05:32:49;;;;;;;4.93;1.90;;;;;;;;;;6340981;22;20207;-65
2023/01/16 05:35:15;;;;;;;4.13;2.00;;;;;;;;;;6340848;22;20407;-65
2023/01/16 05:37:42;;;;;;;2.60;2.00;;;;;;;;;;6341213;22;20138;-63
2023/01/16 05:40:10;;;;;;;3.22;1.92;;;;;;;;;;6341077;22;20142;-65
2023/01/16 05:42:36;;;;;;;3.53;2.20;;;;;;;;;;6341321;22;20433;-65
2023/01/16 05:45:02;;;;;;;2.20;1.77;;;;;;;;;;6340866;22;20134;-64
2023/01/16 05:47:28;;;;;;;3.53;1.90;;;;;;;;;;6340971;22;20138;-64
2023/01/16 05:49:54;;;;;;;3.05;1.80;;;;;;;;;;6340834;22;20146;-64
2023/01/16 05:52:20;;;;;;;3.70;1.83;;;;;;;;;;6341107;22;20154;-65
2023/01/16 05:54:45;;;;;;;4.72;1.83;;;;;;;;;;6340604;22;20436;-64
2023/01/16 05:57:12;;;;;;;1.85;1.60;;;;;;;;;;6341188;22;20162;-64
2023/01/16 05:59:41;;;;;;;6.13;1.77;;;;;;;;;;6341109;22;20152;-64
2023/01/16 06:02:07;;;;;;;2.15;1.30;;;;;;;;;;6341378;22;20142;-64
2023/01/16 06:04:33;;;;;;;3.22;1.52;;;;;;;;;;6341201;22;20181;-63
2023/01/16 06:06:59;;;;;;;1.70;1.25;;;;;;;;;;6340704;22;20204;-65
2023/01/16 06:09:25;;;;;;;2.33;1.17;;;;;;;;;;6340756;22;20142;-65
2023/01/16 06:11:50;;;;;;;3.70;1.15;;;;;;;;;;6340779;22;20238;-65
2023/01/16 06:14:16;;;;;;;4.00;1.20;;;;;;;;;;6340687;22;20139;-64
2023/01/16 06:16:42;;;;;;;2.88;1.30;;;;;;;;;;6340798;22;20238;-65
2023/01/16 06:19:08;;;;;;;1.70;0.98;;;;;;;;;;6341049;22;20146;-65
2023/01/16 06:21:34;;;;;;;1.55;1.05;;;;;;;;;;6340544;22;20575;-64
2023/01/16 06:24:00;;;;;;;2.67;1.25;;;;;;;;;;6340493;22;20537;-64
2023/01/16 06:26:26;;;;;;;2.95;1.02;;;;;;;;;;6341329;22;20545;-64
2023/01/16 06:28:54;;;;;;;4.28;1.30;;;;;;;;;;6341467;22;20237;-65
2023/01/16 06:31:20;;;;;;;2.88;1.00;;;;;;;;;;6342775;22;20150;-64
2023/01/16 06:33:46;;;;;;;2.78;1.20;;;;;;;;;;6342310;22;20139;-64
2023/01/16 06:36:11;;;;;;;4.22;1.15;;;;;;;;;;6342902;22;20193;-64
2023/01/16 06:38:37;;;;;;;2.22;1.10;;;;;;;;;;6342294;22;20138;-65
2023/01/16 06:41:03;;;;;;;2.50;1.13;;;;;;;;;;6342363;22;20203;-65
2023/01/16 06:43:29;;;;;;;1.30;0.90;;;;;;;;;;6342344;22;20146;-65
2023/01/16 06:45:55;;;;;;;5.20;1.10;;;;;;;;;;6342234;22;20229;-65
2023/01/16 06:48:21;;;;;;;2.78;1.38;;;;;;;;;;6342254;22;20605;-65
2023/01/16 06:50:47;;;;;;;1.48;0.80;;;;;;;;;;6342444;22;20142;-65
2023/01/16 06:53:14;;;;;;;3.88;1.10;;;;;;;;;;6342339;22;20143;-64
2023/01/16 06:55:40;;;;;;;2.85;1.10;;;;;;;;;;6342449;22;20180;-64
2023/01/16 06:58:06;;;;;;;4.43;1.10;;;;;;;;;;6342883;22;20154;-65
2023/01/16 07:00:33;;;;;;;4.10;0.80;;;;;;;;;;6342324;22;20146;-65
2023/01/16 07:02:59;;;;;;;3.17;0.82;;;;;;;;;;6342635;22;20134;-64
2023/01/16 07:05:26;;;;;;;1.60;0.88;;;;;;;;;;6342472;22;20263;-64
2023/01/16 07:07:52;;;;;;;1.30;0.90;;;;;;;;;;6342645;22;20153;-65
2023/01/16 07:10:21;;;;;;;4.95;1.00;;;;;;;;;;6341920;22;20134;-65
2023/01/16 07:12:48;;;;;;;1.55;0.70;;;;;;;;;;6342706;22;20225;-65
2023/01/16 07:23:38;;;;;;;1.42;0.85;;;;;;;;;;6342187;22;20184;-65
2023/01/16 07:26:05;;;;;;;1.42;0.80;;;;;;;;;;6342026;22;20154;-65
2023/01/16 07:28:32;;;;;;;2.40;1.10;;;;;;;;;;6342323;22;20138;-64
2023/01/16 07:30:58;;;;;;;1.83;0.77;;;;;;;;;;6342207;22;20146;-65
2023/01/16 07:33:24;;;;;;;1.95;1.08;;;;;;;;;;6342243;22;20142;-65
2023/01/16 07:35:50;;;;;;;1.55;1.05;;;;;;;;;;6341725;22;20177;-65
2023/01/16 07:38:16;;;;;;;3.80;0.80;;;;;;;;;;6342149;22;20150;-65
2023/01/16 07:40:42;;;;;;;2.60;0.90;;;;;;;;;;6341678;22;20545;-64
2023/01/16 07:43:08;;;;;;;1.95;0.73;;;;;;;;;;6342184;22;20200;-64
2023/01/16 07:45:34;;;;;;;1.85;0.65;;;;;;;;;;6342216;22;20178;-64
2023/01/16 07:48:03;;;;;;;2.25;0.85;;;;;;;;;;6342382;22;20149;-65
2023/01/16 07:50:29;;;;;;;3.70;0.90;;;;;;;;;;6342301;22;20663;-65
2023/01/16 07:52:55;;;;;;;4.00;0.90;;;;;;;;;;6341792;22;20217;-65
2023/01/16 07:55:22;;;;;;;0.80;0.60;;;;;;;;;;6341949;22;20150;-65
2023/01/16 07:57:48;;;;;;;2.92;0.70;;;;;;;;;;6342170;22;20146;-65
2023/01/16 08:00:15;;;;;;;2.13;0.70;;;;;;;;;;6341859;22;20172;-66
2023/01/16 08:02:41;;;;;;;0.95;0.70;;;;;;;;;;6342240;22;20225;-66
2023/01/16 08:05:09;;;;;;;3.08;0.70;;;;;;;;;;6341849;22;20257;-66
2023/01/16 08:07:35;;;;;;;1.73;0.60;;;;;;;;;;6341740;22;20142;-65
2023/01/16 08:10:01;;;;;;;1.73;0.90;;;;;;;;;;6342983;22;20546;-65
2023/01/16 08:12:27;;;;;;;2.15;0.90;;;;;;;;;;6343045;22;20243;-65
2023/01/16 08:14:53;;;;;;;2.40;0.95;;;;;;;;;;6342617;22;20134;-64
2023/01/16 08:17:19;;;;;;;1.60;0.88;;;;;;;;;;6343316;22;20170;-65
2023/01/16 08:19:45;;;;;;;2.95;0.80;;;;;;;;;;6342775;22;20152;-65
2023/01/16 08:22:11;;;;;;;2.28;0.60;;;;;;;;;;6342388;22;20192;-65
2023/01/16 08:24:37;;;;;;;1.90;0.90;;;;;;;;;;6341512;22;20134;-66
2023/01/16 08:27:03;;;;;;;1.88;0.70;;;;;;;;;;6340968;22;20504;-65
2023/01/16 08:29:29;;;;;;;4.43;1.00;;;;;;;;;;6341341;22;20177;-65
2023/01/16 08:31:55;;;;;;;4.43;0.70;;;;;;;;;;6341289;22;20146;-64
2023/01/16 08:34:21;;;;;;;2.65;0.68;;;;;;;;;;6341375;22;20213;-65
2023/01/16 08:36:47;;;;;;;1.17;0.70;;;;;;;;;;6341514;22;20177;-65
2023/01/16 08:39:13;;;;;;;1.45;0.80;;;;;;;;;;6341303;22;20202;-65
2023/01/16 08:52:43;;;;;;;2.55;0.70;;;;;;;;;;6341348;22;20191;-64
2023/01/16 08:55:09;;;;;;;3.03;0.80;;;;;;;;;;6341430;22;20450;-64
2023/01/16 08:57:35;;;;;;;1.75;0.90;;;;;;;;;;6341118;22;20159;-64
2023/01/16 09:00:01;;;;;;;1.63;0.70;;;;;;;;;;6341654;22;20138;-63
2023/01/16 09:02:28;;;;;;;1.98;0.90;;;;;;;;;;6341672;22;20207;-64
2023/01/16 09:04:54;;;;;;;2.25;0.73;;;;;;;;;;6341383;22;20189;-64
2023/01/16 09:07:21;;;;;;;2.00;0.80;;;;;;;;;;6341190;22;20157;-64
2023/01/16 09:09:47;;;;;;;1.30;0.60;;;;;;;;;;6341353;22;20157;-64
2023/01/16 09:14:58;;;;;;;3.83;1.10;;;;;;;;;;6340901;22;20177;-63
2023/01/16 09:17:25;;;;;;;2.95;0.95;;;;;;;;;;6340686;22;20173;-61
2023/01/16 09:19:51;;;;;;;1.02;0.60;;;;;;;;;;6341346;22;20174;-63
2023/01/16 09:22:17;;;;;;;2.35;0.73;;;;;;;;;;6340863;22;20154;-63
2023/01/16 09:24:44;;;;;;;1.98;0.73;;;;;;;;;;6341152;22;20146;-62
2023/01/16 09:27:10;;;;;;;2.20;0.65;;;;;;;;;;6340881;22;20174;-61
2023/01/16 09:29:36;;;;;;;2.08;0.70;;;;;;;;;;6341226;22;20150;-62
2023/01/16 09:32:07;;;;;;;2.72;0.80;;;;;;;;;;6340712;22;20473;-62
2023/01/16 09:34:33;;;;;;;1.77;0.80;;;;;;;;;;6341257;22;20398;-63
2023/01/16 09:37:00;;;;;;;2.60;0.93;;;;;;;;;;6340895;22;20246;-63
2023/01/16 09:39:26;;;;;;;1.67;0.73;;;;;;;;;;6341106;22;20143;-63
2023/01/16 09:44:47;;;;;;;2.20;0.77;;;;;;;;;;6341310;22;20426;-63
2023/01/16 09:47:13;;;;;;;3.65;1.00;;;;;;;;;;6340918;22;20188;-62
2023/01/16 09:49:48;;;;;;;2.92;0.80;;;;;;;;;;6340734;22;20545;-62
2023/01/16 10:00:38;;;;;;;1.77;0.82;;;;;;;;;;6341052;22;20541;-61
2023/01/16 10:03:04;;;;;;;2.90;0.90;;;;;;;;;;6340854;22;20624;-63
2023/01/16 10:05:45;;;;;;;2.63;1.02;;;;;;;;;;6342073;22;20356;-63
2023/01/16 10:08:20;;;;;;;2.40;0.95;;;;;;;;;;6343803;22;20425;-63
2023/01/16 10:10:50;;;;;;;1.38;0.90;;;;;;;;;;6343559;22;20164;-62
2023/01/16 10:13:34;;;;;;;4.32;0.90;;;;;;;;;;6342780;22;20536;-62
2023/01/16 10:16:00;;;;;;;2.15;1.10;;;;;;;;;;6342622;22;20257;-62
2023/01/16 10:18:32;;;;;;;1.65;0.95;;;;;;;;;;6342801;22;20142;-63
2023/01/16 10:21:09;;;;;;;2.05;1.02;;;;;;;;;;6342208;22;20154;-62
2023/01/16 10:23:37;;;;;;;2.05;1.00;;;;;;;;;;6342919;22;20169;-63
2023/01/16 10:26:07;;;;;;;3.58;1.40;;;;;;;;;;6342450;22;20250;-63
2023/01/16 10:28:39;;;;;;;5.43;1.42;;;;;;;;;;6342577;22;20595;-62
2023/01/16 10:31:25;;;;;;;2.35;1.10;;;;;;;;;;6342328;22;20168;-63
2023/01/16 10:33:58;;;;;;;5.15;1.15;;;;;;;;;;6343304;22;20241;-63
2023/01/16 10:36:33;;;;;;;2.90;1.27;;;;;;;;;;6342077;22;20220;-63
2023/01/16 10:39:00;;;;;;;1.30;1.00;;;;;;;;;;6342566;22;20138;-62
2023/01/16 10:50:26;;;;;;;4.32;1.52;;;;;;;;;;6217344;23;20439;-62
2023/01/16 10:52:52;;;;;;;3.28;1.50;;;;;;;;;;6312761;22;20161;-60
2023/01/16 10:55:18;;;;;;;3.22;1.38;;;;;;;;;;6342893;22;20154;-62
2023/01/16 10:57:51;;;;;;;2.13;1.20;;;;;;;;;;6342805;22;20146;-62
2023/01/16 11:00:27;;;;;;;3.95;1.48;;;;;;;;;;6342665;22;20141;-61
2023/01/16 11:02:55;;;;;;;1.48;1.15;;;;;;;;;;6343077;22;20141;-62
2023/01/16 11:05:22;;;;;;;1.77;1.15;;;;;;;;;;6342500;22;20165;-61
2023/01/16 11:07:48;;;;;;;2.35;1.20;;;;;;;;;;6342331;22;20146;-61
2023/01/16 11:10:15;;;;;;;1.75;0.95;;;;;;;;;;6342147;22;20149;-63
2023/01/16 11:18:28;;;;;;;3.22;1.05;;;;;;;;;;6342446;22;20258;-62
2023/01/16 11:20:54;;;;;;;2.58;1.23;;;;;;;;;;6342418;22;20169;-64
2023/01/16 11:23:24;;;;;;;4.30;1.23;;;;;;;;;;6342396;22;20406;-63
2023/01/16 11:25:52;;;;;;;2.80;0.90;;;;;;;;;;6342076;22;20143;-64
2023/01/16 11:28:23;;;;;;;2.38;0.82;;;;;;;;;;6341977;22;20143;-63
2023/01/16 11:30:53;;;;;;;4.10;1.20;;;;;;;;;;6342331;22;20138;-62
2023/01/16 11:33:21;;;;;;;1.63;0.95;;;;;;;;;;6342580;22;20150;-62
2023/01/16 11:36:05;;;;;;;3.15;0.85;;;;;;;;;;6342127;22;20177;-63
2023/01/16 11:38:34;;;;;;;1.45;0.82;;;;;;;;;;6342802;22;20394;-63
2023/01/16 11:41:03;;;;;;;1.92;0.80;;;;;;;;;;6342550;22;20215;-63
2023/01/16 11:46:33;;;;;;;2.15;0.90;;;;;;;;;;6342828;22;20260;-63
2023/01/16 11:49:01;;;;;;;6.50;1.25;;;;;;;;;;6343255;22;20153;-63
2023/01/16 11:51:29;;;;;;;0.88;0.75;;;;;;;;;;6343303;22;20605;-63
2023/01/16 11:53:56;;;;;;;2.53;1.05;;;;;;;;;;6342536;22;20142;-63
2023/01/16 11:56:25;;;;;;;2.53;1.10;;;;;;;;;;6342974;22;20170;-63
2023/01/16 11:59:18;;;;;;;2.90;0.98;;;;;;;;;;6343129;22;20170;-60
2023/01/16 12:02:18;;;;;;;4.38;1.17;;;;;;;;;;6342635;22;20134;-63
2023/01/16 12:08:22;;;;;;;2.55;1.10;;;;;;;;;;6341804;22;20226;-62
2023/01/16 12:10:53;;;;;;;2.63;1.17;;;;;;;;;;6338770;22;20561;-61
2023/01/16 12:16:17;;;;;;;2.08;1.20;;;;;;;;;;6342069;22;20172;-64
2023/01/16 12:18:52;;;;;;;2.42;0.88;;;;;;;;;;6341658;22;20127;-62
2023/01/16 12:21:28;;;;;;;1.30;0.88;;;;;;;;;;6341735;22;20454;-62
2023/01/16 12:23:57;;;;;;;3.25;1.00;;;;;;;;;;6341793;22;20134;-64
2023/01/16 12:26:25;;;;;;;2.45;0.77;;;;;;;;;;6341183;22;20573;-63
2023/01/16 12:28:57;;;;;;;1.35;0.70;;;;;;;;;;6341346;22;20198;-62
2023/01/16 12:31:35;;;;;;;1.77;0.70;;;;;;;;;;6341580;22;20150;-63
2023/01/16 12:34:19;;;;;;;2.85;0.73;;;;;;;;;;6341855;22;20190;-63
2023/01/16 12:37:04;;;;;;;1.77;0.60;;;;;;;;;;6341692;22;20180;-62
2023/01/16 12:39:53;;;;;;;1.80;0.95;;;;;;;;;;6341085;22;20183;-63
2023/01/16 12:45:37;;;;;;;2.25;0.80;;;;;;;;;;6341346;22;20148;-62
2023/01/16 12:48:17;;;;;;;2.60;0.80;;;;;;;;;;6341436;22;20160;-63
2023/01/16 12:51:13;;;;;;;0.65;0.60;;;;;;;;;;6341501;22;20156;-63
2023/01/16 12:53:45;;;;;;;1.52;0.77;;;;;;;;;;6315365;22;20210;-63
2023/01/16 12:56:17;;;;;;;1.08;0.80;;;;;;;;;;6341319;22;20162;-63
2023/01/16 12:58:45;;;;;;;2.45;1.02;;;;;;;;;;6341269;22;20214;-62
2023/01/16 13:01:13;;;;;;;1.13;0.90;;;;;;;;;;6341448;22;20138;-62
2023/01/16 13:03:42;;;;;;;3.88;0.95;;;;;;;;;;6341594;22;20142;-64
2023/01/16 13:06:13;;;;;;;0.70;0.60;;;;;;;;;;6341280;22;20165;-63
2023/01/16 13:08:57;;;;;;;2.13;0.75;;;;;;;;;;6341101;22;20130;-64
2023/01/16 13:14:12;;;;;;;3.85;0.70;;;;;;;;;;6350470;22;20156;-63
2023/01/16 13:16:45;;;;;;;2.97;0.80;;;;;;;;;;6362517;22;20162;-63
2023/01/16 13:19:15;;;;;;;2.67;0.82;;;;;;;;;;6362557;22;20191;-62
2023/01/16 13:22:05;;;;;;;1.48;0.90;;;;;;;;;;6354221;22;20535;-63
2023/01/16 13:24:32;;;;;;;1.48;0.82;;;;;;;;;;6352132;22;20118;-63
2023/01/16 13:27:02;;;;;;;2.22;1.17;;;;;;;;;;6348423;22;20217;-63
2023/01/16 13:29:40;;;;;;;3.38;0.98;;;;;;;;;;6347184;22;20185;-63
2023/01/16 13:32:15;;;;;;;3.78;0.93;;;;;;;;;;6343140;22;20207;-62
2023/01/16 13:34:47;;;;;;;2.00;1.15;;;;;;;;;;6341554;22;20129;-62
2023/01/16 13:37:16;;;;;;;3.38;0.98;;;;;;;;;;6341122;22;20165;-61
2023/01/16 13:40:07;;;;;;;4.22;1.60;;;;;;;;;;6342414;22;20141;-62
2023/01/16 13:42:35;;;;;;;2.15;0.90;;;;;;;;;;6343741;22;20139;-60
2023/01/16 13:47:49;;;;;;;3.42;0.70;;;;;;;;;;6343199;22;20149;-63
2023/01/16 13:50:24;;;;;;;1.60;0.80;;;;;;;;;;6342983;22;20142;-62
2023/01/16 13:52:50;;;;;;;1.00;0.90;;;;;;;;;;6343398;22;20156;-62
2023/01/16 13:55:24;;;;;;;2.80;1.10;;;;;;;;;;6342763;22;20153;-62
2023/01/16 13:57:50;;;;;;;3.70;1.27;;;;;;;;;;6342710;22;20529;-62
2023/01/16 14:00:19;;;;;;;2.58;0.73;;;;;;;;;;6342987;22;20157;-62
2023/01/16 14:02:45;;;;;;;2.25;0.88;;;;;;;;;;6343210;22;20176;-62
2023/01/16 14:05:16;;;;;;;2.10;0.70;;;;;;;;;;6343338;22;20611;-62
2023/01/16 14:10:38;;;;;;;1.25;0.60;;;;;;;;;;6342475;22;20443;-61
2023/01/16 14:13:14;;;;;;;1.85;0.60;;;;;;;;;;6342440;22;20130;-62
2023/01/16 14:18:36;;;;;;;2.20;0.85;;;;;;;;;;6342767;22;20152;-63
2023/01/16 14:21:03;;;;;;;1.77;0.73;;;;;;;;;;6342312;22;20512;-63
2023/01/16 14:26:34;;;;;;;1.92;0.88;;;;;;;;;;6342628;22;20555;-64
2023/01/16 14:29:01;;;;;;;1.48;0.82;;;;;;;;;;6342639;22;20142;-64
2023/01/16 14:31:30;;;;;;;2.05;0.93;;;;;;;;;;6342423;22;20159;-64
2023/01/16 14:33:57;;;;;;;4.20;0.70;;;;;;;;;;6341298;22;20143;-63
2023/01/16 14:36:25;;;;;;;2.67;0.88;;;;;;;;;;6342714;22;20194;-63
2023/01/16 14:38:52;;;;;;;1.98;0.80;;;;;;;;;;6342844;22;20203;-61
2023/01/16 14:56:33;;;;;;;1.40;0.90;;;;;;;;;;6342531;22;20192;-62
2023/01/16 14:59:04;;;;;;;2.08;0.80;;;;;;;;;;6218162;23;20536;-62
2023/01/16 15:04:39;;;;;;;3.30;1.08;;;;;;;;;;6217088;23;20240;-62
2023/01/16 15:07:07;;;;;;;2.22;1.00;;;;;;;;;;6217259;23;20560;-63
2023/01/16 15:09:33;;;;;;;1.35;0.60;;;;;;;;;;6217040;23;20153;-64
2023/01/16 15:12:03;;;;;;;2.55;0.90;;;;;;;;;;6217275;23;20454;-64
2023/01/16 15:14:29;;;;;;;1.90;0.80;;;;;;;;;;6217970;23;20180;-63
2023/01/16 15:22:46;;;;;;;1.73;0.80;;;;;;;;;;6218537;23;20615;-63
2023/01/16 15:25:23;;;;;;;1.40;0.70;;;;;;;;;;6218357;23;20141;-63
2023/01/16 15:27:52;;;;;;;3.70;0.98;;;;;;;;;;6218972;23;20539;-62
2023/01/16 15:30:18;;;;;;;3.17;1.20;;;;;;;;;;6216998;23;20198;-63
2023/01/16 15:35:43;;;;;;;2.58;0.90;;;;;;;;;;6341987;22;20185;-63
2023/01/16 15:38:10;;;;;;;3.42;0.85;;;;;;;;;;6342268;22;20143;-61
2023/01/16 15:40:37;;;;;;;2.17;1.02;;;;;;;;;;6341824;22;20451;-63
2023/01/16 15:46:33;;;;;;;1.77;0.90;;;;;;;;;;6247217;23;20244;-63
2023/01/16 15:49:18;;;;;;;4.93;1.10;;;;;;;;;;6247381;23;20215;-64
2023/01/16 15:51:51;;;;;;;2.55;0.88;;;;;;;;;;6320536;22;20156;-63
2023/01/16 15:54:18;;;;;;;2.47;0.98;;;;;;;;;;6342486;22;20207;-62
2023/01/16 15:56:44;;;;;;;3.85;0.90;;;;;;;;;;6342229;22;20178;-64
2023/01/16 15:59:22;;;;;;;2.55;1.10;;;;;;;;;;6342207;22;20138;-63
2023/01/16 16:01:48;;;;;;;3.95;0.88;;;;;;;;;;6341699;22;20242;-63
2023/01/16 16:04:15;;;;;;;1.98;0.70;;;;;;;;;;6341960;22;20234;-62
2023/01/16 16:06:42;;;;;;;2.28;0.93;;;;;;;;;;6341594;22;20138;-62
2023/01/16 16:09:34;;;;;;;2.85;1.00;;;;;;;;;;6341737;22;20146;-63
2023/01/16 16:12:04;;;;;;;2.67;0.90;;;;;;;;;;6336129;22;20580;-61
2023/01/16 16:20:22;;;;;;;2.80;1.10;;;;;;;;;;6341757;22;20208;-63
2023/01/16 16:22:48;;;;;;;3.10;0.93;;;;;;;;;;6341557;22;20597;-62
2023/01/16 16:25:21;;;;;;;2.35;0.80;;;;;;;;;;6342082;22;20169;-63
2023/01/16 16:27:47;;;;;;;3.10;0.90;;;;;;;;;;6341989;22;20158;-63
2023/01/16 16:30:16;;;;;;;2.42;1.00;;;;;;;;;;6341791;22;20153;-63
2023/01/16 16:32:42;;;;;;;2.65;1.00;;;;;;;;;;6341817;22;20149;-63
2023/01/16 16:35:17;;;;;;;3.72;1.13;;;;;;;;;;6341305;22;20143;-61
2023/01/16 16:37:45;;;;;;;3.72;1.00;;;;;;;;;;6341403;22;20154;-64
2023/01/16 16:40:11;;;;;;;1.98;0.82;;;;;;;;;;6342358;22;20537;-63
2023/01/16 16:42:56;;;;;;;3.05;0.98;;;;;;;;;;6341322;22;20200;-64
2023/01/16 16:45:24;;;;;;;2.55;0.90;;;;;;;;;;6341230;22;20557;-63
2023/01/16 16:48:10;;;;;;;1.45;0.90;;;;;;;;;;6341662;22;20176;-62
2023/01/16 16:50:36;;;;;;;1.55;1.10;;;;;;;;;;6341236;22;20174;-62